Briggsville, AR (72828)

1:07 AM CDT on August 29, 2015 (GMT -0500)
Mount Ida | | Change Station
CLOSE
Current Station
Airport
Location: Mount Ida,
Elevation: 702 ft
Nearby Weather Stations

Elev 702 ft 34.55 °N, 93.58 °W | Updated 14 minutes ago

Partly Cloudy
Partly Cloudy
64 °F
Feels Like 64 °F
N
0
Wind Variable Wind from North

Today
High -- | Low -- °F
--% Chance of Precip.
Yesterday
High -- | Low -- °F
Precip. -- in
6:44 AM 7:44 PM
Full, 100% visible
Pressure 29.99 in
Visibility 7.0 miles
Clouds Clear
Dew Point 62 °F
Humidity 93%
Rainfall 0.00 in
Snow Depth Not available.
UV 0 out of 12
Pollen 9.40 out of 12
Air Quality Not available.
Flu Activity Not available.
METAR KMWT 290553Z AUTO 00000KT 7SM CLR 18/17 A3002 RMK AO2 SLP155 T01780167 10267 20178 403060144 50001
Pressure 29.99 in
Visibility 7.0 miles
Clouds Clear
Dew Point 62 °F
Humidity 93%
Rainfall 0.00 in
Snow Depth Not available.
UV 0 out of 12
Pollen 9.40 out of 12
Air Quality Not available.
Flu Activity Not available.
METAR KMWT 290553Z AUTO 00000KT 7SM CLR 18/17 A3002 RMK AO2 SLP155 T01780167 10267 20178 403060144 50001

10-Day Weather Forecast

×

Almanac

Astronomy

Aug. 29, 2015 Rise Set
Actual Time
Civil Twilight
Nautical Twilight
Astronomical Twilight
Moon
Length of Visible Light
Length of Day
Tomorrow will be .
, % of the Moon is Illuminated

Today's Extremes

State Highs State Lows

Community

WunderPhotos

Upload Photos

1,850,622 photos uploaded!

WunderBlogs® & News

Nearby

Air Quality

  Air Quality AQ Index Pollutant
Not available.

Snow Depth

Station Depth Elevation

Earthquake Activity

City Distance Mag. Time & Date
Minimum magnitude displayed is 2.5.

Coastal Water Temperatures

Place Temperature

Stations

Nearby Weather Stations

Station Location Temp. Windchill Dew Point Humidity Wind Precip. Elev Updated Type